Hinkley, California
Current Conditions -  °F | °C
As of 9:50 PM on Sunday 19 Oct 2014 (Local Time) from KDAG Reporting Station
Clear Clear  
Wind Chill: 71°   Ceiling: Unl
Heat Index: 71°   Visibility: 10mi
Dew Point: 36°   Wind: 7mph
Humidity: 28%   Direction: 290°WNW
Pressure: 29.87"   Gusts: NA
Location:  34.93°N, 117.2°W
Report Text: KDAG 200450Z AUTO 29006KT 10SM CLR 22/02 A2987 RMK AO2 SLP094 T02170022
Loading
Personal Weather Stations






























Interactive Weather Map
Tropical Storm Tracking
New forecast layout! Learn more

10-Day Weather Forecast

Advertisements
Track Severe Weather on mobile